Time;durP1;ratioP1;P1;durP2;ratioP2;P2;SDS_P1;SDS_P2;PMS_P1;PMS_P2;Temp;Humidity;BMP_temperature;BMP_pressure;BME280_temperature;BME280_humidity;BME280_pressure;Samples;Min_cycle;Max_cycle;Signal;HPM_P1;HPM_P2
2023/02/05 00:00:15;;;;;;;12.65;5.00;;;-0.20;1.00;;;;;;6196600;22;50605;-90
2023/02/05 00:03:09;;;;;;;8.80;4.65;;;-0.20;1.00;;;;;;6230030;22;20209;-91
2023/02/05 00:06:05;;;;;;;10.57;4.40;;;-0.20;1.00;;;;;;6229652;22;20209;-93
2023/02/05 00:08:36;;;;;;;7.85;3.88;;;-0.20;1.00;;;;;;6209404;22;20209;-92
2023/02/05 00:13:54;;;;;;;8.27;4.15;;;-0.30;1.00;;;;;;6187765;22;20229;-90
2023/02/05 00:16:53;;;;;;;9.15;4.38;;;-0.40;1.00;;;;;;6163961;22;20216;-89
2023/02/05 00:25:46;;;;;;;10.18;4.03;;;-0.50;1.00;;;;;;6209904;22;20217;-92
2023/02/05 00:28:25;;;;;;;7.30;3.75;;;-0.50;1.00;;;;;;6181672;22;20240;-93
2023/02/05 00:31:06;;;;;;;8.63;4.30;;;-0.50;1.00;;;;;;6209832;22;20232;-90
2023/02/05 00:33:46;;;;;;;6.97;3.70;;;-0.50;1.00;;;;;;6226566;22;20201;-92
2023/02/05 00:36:54;;;;;;;9.40;3.67;;;-0.50;1.00;;;;;;6207842;22;20197;-91
2023/02/05 00:39:36;;;;;;;8.05;3.92;;;-0.50;1.00;;;;;;6044248;23;20332;-90
2023/02/05 00:42:22;;;;;;;;;;;;;;;;;;;;;
2023/02/05 00:45:03;;;;;;;8.90;3.58;;;-0.50;1.00;;;;;;6209083;22;39811;-91
2023/02/05 00:47:46;;;;;;;8.13;3.70;;;-0.50;1.00;;;;;;6224165;22;20217;-91
2023/02/05 00:50:28;;;;;;;;;;;;;;;;;;;;;
2023/02/05 00:53:05;;;;;;;6.45;3.13;;;-0.50;1.00;;;;;;6179422;23;39147;-91
2023/02/05 00:59:05;;;;;;;10.50;3.55;;;-0.50;1.00;;;;;;6230697;22;20284;-90
2023/02/05 01:04:30;;;;;;;8.98;4.05;;;-0.50;1.00;;;;;;6204230;22;20210;-89
2023/02/05 01:06:58;;;;;;;9.25;3.60;;;-0.60;1.00;;;;;;6242383;22;20213;-90
2023/02/05 01:09:35;;;;;;;29.25;16.67;;;-0.60;1.00;;;;;;6201577;22;20317;-92
2023/02/05 01:12:15;;;;;;;7.70;3.50;;;-0.70;1.00;;;;;;6219638;22;20724;-91
2023/02/05 01:15:14;;;;;;;7.45;3.50;;;-0.80;1.00;;;;;;6220993;22;20212;-91
2023/02/05 01:24:45;;;;;;;;;;;;;;;;;;;;;
2023/02/05 01:27:36;;;;;;;6.93;3.08;;;-1.10;1.00;;;;;;6200937;22;38059;-91
2023/02/05 01:30:18;;;;;;;8.05;3.55;;;-1.20;1.00;;;;;;6218347;22;20213;-91
2023/02/05 01:32:52;;;;;;;11.02;3.60;;;-1.30;1.00;;;;;;6234129;22;20307;-90
2023/02/05 01:35:23;;;;;;;7.63;3.30;;;-1.30;1.00;;;;;;6208089;22;20206;-91
2023/02/05 01:40:44;;;;;;;9.02;4.13;;;-1.40;1.00;;;;;;6194072;22;20204;-93
2023/02/05 01:43:36;;;;;;;9.20;4.65;;;-1.40;1.00;;;;;;6212322;22;20220;-90
2023/02/05 01:46:41;;;;;;;;;;;;;;;;;;;;;
2023/02/05 01:49:18;;;;;;;9.90;4.13;;;-1.50;1.00;;;;;;6212102;22;39103;-89
2023/02/05 01:52:07;;;;;;;8.50;3.92;;;-1.50;1.00;;;;;;6234928;22;20281;-91
2023/02/05 01:54:54;;;;;;;8.73;4.00;;;-1.50;1.00;;;;;;6225899;23;20217;-90
2023/02/05 01:57:36;;;;;;;9.20;3.85;;;-1.50;1.00;;;;;;6224625;22;21098;-90
2023/02/05 02:03:15;;;;;;;7.47;3.70;;;-1.60;1.00;;;;;;6235635;22;20213;-90
2023/02/05 02:05:58;;;;;;;9.10;6.25;;;-1.50;1.00;;;;;;6222179;22;20287;-92
2023/02/05 02:08:36;;;;;;;12.60;6.20;;;-1.60;1.00;;;;;;6237578;22;20225;-90
2023/02/05 02:11:30;;;;;;;9.85;4.60;;;-1.70;1.00;;;;;;6194953;22;20188;-90
2023/02/05 02:14:15;;;;;;;6.85;4.10;;;-1.70;1.00;;;;;;6248836;22;20214;-92
2023/02/05 02:17:18;;;;;;;7.88;4.78;;;-1.70;1.00;;;;;;6209049;22;20231;-90
2023/02/05 02:23:21;;;;;;;9.00;4.15;;;-1.70;1.00;;;;;;6226010;22;20216;-91
2023/02/05 02:26:15;;;;;;;9.90;4.32;;;-1.80;1.00;;;;;;6200438;22;20240;-92
2023/02/05 02:32:14;;;;;;;7.28;4.55;;;-1.80;1.00;;;;;;6209046;22;20222;-92
2023/02/05 02:35:08;;;;;;;7.50;3.75;;;-1.80;1.00;;;;;;6226691;23;20210;-91
2023/02/05 02:37:57;;;;;;;9.13;4.47;;;-1.80;1.00;;;;;;6171881;22;20237;-93
2023/02/05 02:43:29;;;;;;;7.60;3.80;;;-1.90;1.00;;;;;;6221753;22;20292;-91
2023/02/05 02:49:14;;;;;;;9.20;3.90;;;-2.00;1.00;;;;;;6239750;22;20197;-91
2023/02/05 02:52:14;;;;;;;8.82;3.80;;;-2.00;1.00;;;;;;6250990;22;20208;-90
2023/02/05 02:54:58;;;;;;;;;;;;;;;;;;;;;
2023/02/05 03:01:05;;;;;;;8.10;4.80;;;-2.00;1.00;;;;;;6212648;22;20233;-90
2023/02/05 03:03:46;;;;;;;8.48;3.70;;;-2.00;1.00;;;;;;6177946;23;20298;-91
2023/02/05 03:06:36;;;;;;;7.88;5.07;;;-2.00;1.00;;;;;;6233237;23;20218;-91
2023/02/05 03:09:25;;;;;;;8.52;4.18;;;-2.00;1.00;;;;;;6204623;23;20286;-89
2023/02/05 03:11:57;;;;;;;10.90;4.75;;;-2.00;1.00;;;;;;6228200;23;20233;-90
2023/02/05 03:14:27;;;;;;;8.63;4.70;;;-2.10;1.00;;;;;;6212338;23;20220;-90
2023/02/05 03:17:05;;;;;;;9.38;5.95;;;-2.10;1.00;;;;;;6227343;23;20229;-90
2023/02/05 03:19:38;;;;;;;9.48;5.70;;;-2.00;1.00;;;;;;6224194;23;20689;-90
2023/02/05 03:22:16;;;;;;;8.98;5.40;;;-2.00;1.00;;;;;;6226581;23;20213;-91
2023/02/05 03:24:56;;;;;;;11.02;5.10;;;-2.00;1.00;;;;;;6206530;23;20205;-90
2023/02/05 03:27:35;;;;;;;8.63;4.35;;;-2.00;1.00;;;;;;6200770;23;20193;-90
2023/02/05 03:30:14;;;;;;;12.43;6.63;;;-2.10;1.00;;;;;;6176232;23;20284;-89
2023/02/05 03:32:56;;;;;;;9.40;5.85;;;-2.00;1.00;;;;;;6213131;23;20213;-89
2023/02/05 03:36:04;;;;;;;11.60;6.10;;;-2.00;1.00;;;;;;6191854;23;20276;-92
2023/02/05 03:39:07;;;;;;;14.82;6.18;;;-2.00;1.00;;;;;;6165076;23;20217;-92
2023/02/05 03:42:15;;;;;;;;;;;;;;;;;;;;;
2023/02/05 03:45:19;;;;;;;9.23;4.97;;;-2.00;1.00;;;;;;6223236;23;48959;-91
2023/02/05 03:48:16;;;;;;;12.07;6.32;;;-1.90;1.00;;;;;;6202156;23;20240;-90
2023/02/05 03:51:16;;;;;;;9.43;5.40;;;-2.00;1.00;;;;;;6230974;23;20280;-90
2023/02/05 04:11:47;;;;;;;11.20;7.00;;;-2.00;1.00;;;;;;6022322;23;20217;-91
2023/02/05 04:14:48;;;;;;;9.57;6.20;;;-2.00;1.00;;;;;;5990426;23;20217;-91
2023/02/05 04:17:45;;;;;;;10.57;5.97;;;-1.90;1.00;;;;;;6133388;23;20219;-91
2023/02/05 04:20:38;;;;;;;10.70;6.07;;;-1.80;1.00;;;;;;6164147;23;20871;-93
2023/02/05 04:23:08;;;;;;;11.05;5.50;;;-1.80;1.00;;;;;;6190051;23;20227;-93
2023/02/05 04:25:38;;;;;;;11.25;5.60;;;-1.80;1.00;;;;;;6156375;23;20210;-92
2023/02/05 04:28:25;;;;;;;52.83;30.23;;;-1.80;1.00;;;;;;6172161;23;21058;-91
2023/02/05 04:30:59;;;;;;;11.88;5.85;;;-1.70;1.00;;;;;;6174897;23;20269;-90
2023/02/05 04:33:29;;;;;;;9.52;5.32;;;-1.80;1.00;;;;;;6187405;23;20217;-92
2023/02/05 04:40:18;;;;;;;10.50;6.00;;;-1.70;1.00;;;;;;4938064;27;4743084;-91
2023/02/05 04:43:11;;;;;;;;;;;;;;;;;;;;;
2023/02/05 04:46:07;;;;;;;9.55;5.30;;;-1.90;1.00;;;;;;5060611;28;49821;-92
2023/02/05 04:48:39;;;;;;;10.27;5.95;;;-1.90;1.00;;;;;;5077065;28;20278;-92
2023/02/05 04:54:19;;;;;;;;;;;;;;;;;;;;;
2023/02/05 04:57:30;;;;;;;;;;;;;;;;;;;;;
2023/02/05 08:11:56;;;;;;;11.50;7.45;;;-0.70;1.00;;;;;;5020631;28;20238;-85
2023/02/05 08:14:36;;;;;;;12.23;8.05;;;-0.70;1.00;;;;;;5021893;28;20240;-85
2023/02/05 08:17:09;;;;;;;11.65;6.82;;;-0.60;1.00;;;;;;5025731;28;20238;-81
2023/02/05 08:19:39;;;;;;;13.40;7.38;;;-0.50;1.00;;;;;;5114248;22;20308;-79
2023/02/05 08:22:07;;;;;;;11.27;6.18;;;-0.40;1.00;;;;;;5044284;28;20234;-80
2023/02/05 08:24:39;;;;;;;12.38;7.75;;;-0.30;1.00;;;;;;5038588;28;20219;-83
2023/02/05 08:27:09;;;;;;;11.63;6.65;;;-0.20;1.00;;;;;;5017094;28;20260;-80
2023/02/05 08:29:36;;;;;;;10.20;6.72;;;-0.30;1.00;;;;;;5035390;28;20218;-79
2023/02/05 08:32:09;;;;;;;10.60;7.10;;;-0.30;1.00;;;;;;5043911;28;20214;-85
2023/02/05 08:34:37;;;;;;;12.23;9.30;;;-0.20;1.00;;;;;;5053413;28;20240;-81
2023/02/05 08:37:15;;;;;;;14.02;8.32;;;-0.10;1.00;;;;;;5042205;28;20257;-85
2023/02/05 08:39:55;;;;;;;11.10;7.22;;;-0.10;1.00;;;;;;5039343;28;20280;-79
2023/02/05 08:42:38;;;;;;;12.27;7.15;;;0.00;1.00;;;;;;5050343;28;20265;-81
2023/02/05 08:45:09;;;;;;;11.90;5.65;;;0.00;1.00;;;;;;5045452;28;20222;-78
2023/02/05 08:47:37;;;;;;;13.20;6.57;;;0.10;1.00;;;;;;5049513;28;20242;-80
2023/02/05 08:50:08;;;;;;;11.45;6.70;;;0.10;1.00;;;;;;5044317;28;20312;-80
2023/02/05 08:52:39;;;;;;;12.60;6.80;;;0.20;1.00;;;;;;5052607;28;20240;-82
2023/02/05 08:55:17;;;;;;;10.32;7.13;;;0.30;1.00;;;;;;5029462;28;20244;-82
2023/02/05 08:57:47;;;;;;;13.93;7.50;;;0.50;1.00;;;;;;5046386;28;20245;-87
2023/02/05 09:00:19;;;;;;;10.52;6.50;;;0.70;1.00;;;;;;5044855;28;20234;-86
2023/02/05 09:02:47;;;;;;;12.40;6.80;;;0.80;1.00;;;;;;5047806;28;20324;-83
2023/02/05 09:05:17;;;;;;;11.38;7.25;;;0.90;1.00;;;;;;5047100;28;20221;-85
2023/02/05 09:07:58;;;;;;;10.77;5.88;;;0.90;1.00;;;;;;5045237;28;20236;-86
2023/02/05 09:10:29;;;;;;;12.93;6.70;;;0.80;1.00;;;;;;5038588;28;20257;-83
2023/02/05 09:13:06;;;;;;;11.23;6.00;;;0.80;1.00;;;;;;5043780;28;20214;-82
2023/02/05 09:15:57;;;;;;;9.25;5.78;;;0.70;1.00;;;;;;5047225;28;20232;-82
2023/02/05 09:18:29;;;;;;;9.43;5.35;;;0.60;1.00;;;;;;5020172;28;20254;-80
2023/02/05 09:20:57;;;;;;;9.98;5.57;;;0.70;1.00;;;;;;5043587;28;20234;-81
2023/02/05 09:23:36;;;;;;;14.75;5.90;;;0.60;1.00;;;;;;5038572;28;20235;-78
2023/02/05 09:26:18;;;;;;;8.80;4.97;;;0.60;1.00;;;;;;5043333;28;20234;-82
2023/02/05 09:28:47;;;;;;;8.48;5.13;;;0.70;1.00;;;;;;5046885;28;20261;-80
2023/02/05 09:31:19;;;;;;;10.15;5.97;;;0.70;1.00;;;;;;5040178;28;20222;-81
2023/02/05 09:33:50;;;;;;;8.35;5.28;;;0.70;1.00;;;;;;5047040;28;20222;-80
2023/02/05 09:36:19;;;;;;;10.32;6.00;;;0.70;1.00;;;;;;5044118;28;20242;-81
2023/02/05 09:38:51;;;;;;;8.65;5.18;;;0.80;1.00;;;;;;5045568;28;20240;-81
2023/02/05 09:41:35;;;;;;;11.85;5.32;;;0.80;1.00;;;;;;5047926;28;20306;-81
2023/02/05 09:47:46;;;;;;;10.65;5.55;;;0.80;1.00;;;;;;5050685;28;20296;-80
2023/02/05 09:50:24;;;;;;;13.48;5.18;;;0.90;1.00;;;;;;5042749;28;20238;-82
2023/02/05 09:53:00;;;;;;;11.38;5.88;;;0.90;1.00;;;;;;5050826;28;20237;-82
2023/02/05 09:55:29;;;;;;;11.35;6.72;;;1.10;1.00;;;;;;5014561;28;20233;-84
2023/02/05 09:58:06;;;;;;;10.13;6.28;;;1.30;1.00;;;;;;5048365;28;20253;-81
2023/02/05 10:00:46;;;;;;;10.50;5.45;;;1.40;1.00;;;;;;5048306;28;20241;-86
2023/02/05 10:03:40;;;;;;;9.30;5.70;;;1.50;1.00;;;;;;5028820;28;20234;-83
2023/02/05 10:06:48;;;;;;;10.75;6.60;;;1.70;1.00;;;;;;5041892;28;20241;-81
2023/02/05 10:09:40;;;;;;;8.20;4.97;;;2.00;1.00;;;;;;5026774;28;20242;-80
2023/02/05 10:12:30;;;;;;;9.95;5.68;;;2.30;1.00;;;;;;5037253;28;20249;-80
2023/02/05 10:15:40;;;;;;;;;;;;;;;;;;;;;
2023/02/05 10:18:26;;;;;;;9.15;4.85;;;2.90;1.00;;;;;;5029352;28;50110;-79
2023/02/05 10:24:31;;;;;;;;;;;;;;;;;;;;;
2023/02/05 10:27:07;;;;;;;7.78;4.53;;;3.10;1.00;;;;;;5024937;28;49548;-82
2023/02/05 10:29:45;;;;;;;8.70;4.05;;;3.10;1.00;;;;;;5027139;28;20241;-80
2023/02/05 10:32:38;;;;;;;7.47;3.75;;;3.20;1.00;;;;;;5036783;28;20329;-80
2023/02/05 10:35:19;;;;;;;7.85;4.78;;;3.40;1.00;;;;;;5024296;28;20231;-81
2023/02/05 10:37:53;;;;;;;6.70;3.67;;;3.30;1.00;;;;;;5029112;28;20293;-79
2023/02/05 10:40:25;;;;;;;7.45;3.85;;;3.10;1.00;;;;;;5035681;28;21042;-80
2023/02/05 10:42:57;;;;;;;7.35;4.22;;;2.90;1.00;;;;;;5026756;28;20254;-79
2023/02/05 10:45:30;;;;;;;12.20;3.83;;;2.70;1.00;;;;;;5022085;28;20354;-82
2023/02/05 10:48:10;;;;;;;7.07;3.75;;;2.90;1.00;;;;;;5031330;28;20702;-83
2023/02/05 10:50:49;;;;;;;7.75;4.00;;;3.00;1.00;;;;;;5021957;28;20245;-81
2023/02/05 10:53:19;;;;;;;9.30;4.35;;;3.10;1.00;;;;;;5028224;28;20293;-79
2023/02/05 10:55:47;;;;;;;15.35;8.32;;;3.40;1.00;;;;;;5033245;28;20245;-83
2023/02/05 10:58:31;;;;;;;9.27;3.40;;;3.50;1.00;;;;;;5033197;28;20249;-78
2023/02/05 11:01:01;;;;;;;6.60;3.38;;;3.40;1.00;;;;;;5032688;28;20742;-80
2023/02/05 11:03:32;;;;;;;7.43;3.85;;;3.60;1.00;;;;;;5036974;28;20238;-80
2023/02/05 11:05:59;;;;;;;7.13;3.40;;;4.00;1.00;;;;;;5018571;28;20978;-82
2023/02/05 11:08:35;;;;;;;7.82;3.65;;;4.10;1.00;;;;;;5035308;28;20237;-80
2023/02/05 11:11:06;;;;;;;9.13;3.58;;;4.40;1.00;;;;;;5031357;28;20252;-79
2023/02/05 11:13:39;;;;;;;6.43;2.97;;;4.30;1.00;;;;;;5034169;28;20249;-82
2023/02/05 11:16:09;;;;;;;6.13;3.25;;;4.50;1.00;;;;;;5033313;28;21062;-81
2023/02/05 11:18:40;;;;;;;6.93;3.88;;;4.50;1.00;;;;;;5029999;28;20242;-79
2023/02/05 11:21:09;;;;;;;7.65;3.42;;;4.70;1.00;;;;;;5056890;28;21068;-80
2023/02/05 11:23:39;;;;;;;6.97;3.55;;;4.60;1.00;;;;;;5059207;28;20236;-80
2023/02/05 11:26:27;;;;;;;6.68;3.75;;;4.80;1.00;;;;;;5053888;28;20266;-79
2023/02/05 11:28:57;;;;;;;8.80;4.00;;;4.80;1.00;;;;;;5055603;28;20273;-81
2023/02/05 11:31:37;;;;;;;7.10;3.47;;;4.90;1.00;;;;;;5053525;28;21042;-82
2023/02/05 11:34:19;;;;;;;7.38;3.65;;;5.10;1.00;;;;;;4999996;28;20244;-84
2023/02/05 11:36:51;;;;;;;6.78;3.22;;;5.20;1.00;;;;;;5030473;28;20244;-82
2023/02/05 11:39:35;;;;;;;10.63;4.35;;;5.00;1.00;;;;;;5052504;28;20237;-82
2023/02/05 11:42:15;;;;;;;9.80;3.80;;;5.00;1.00;;;;;;5049426;28;20241;-81
2023/02/05 11:44:51;;;;;;;9.85;4.43;;;4.90;1.00;;;;;;5053024;28;20264;-82
2023/02/05 11:47:29;;;;;;;12.45;7.90;;;4.60;1.00;;;;;;5048184;28;20238;-80
2023/02/05 11:49:59;;;;;;;8.45;3.30;;;4.80;1.00;;;;;;5034632;28;21173;-82
2023/02/05 11:52:36;;;;;;;7.32;4.30;;;4.80;1.00;;;;;;5042048;28;20304;-82
2023/02/05 11:55:28;;;;;;;9.18;3.42;;;4.90;1.00;;;;;;5054936;28;20229;-81
2023/02/05 11:58:00;;;;;;;8.73;3.33;;;5.00;1.00;;;;;;5062491;28;20303;-82
2023/02/05 12:00:30;;;;;;;7.25;3.60;;;5.00;1.00;;;;;;5055544;28;20233;-80
2023/02/05 12:03:16;;;;;;;9.20;3.45;;;5.30;1.00;;;;;;5051341;28;20236;-82
2023/02/05 12:05:58;;;;;;;8.52;3.90;;;5.50;1.00;;;;;;5071045;28;20279;-81
2023/02/05 12:08:36;;;;;;;7.85;3.80;;;5.50;1.00;;;;;;5060625;28;20279;-82
2023/02/05 12:11:25;;;;;;;8.35;3.72;;;5.30;1.00;;;;;;5050899;28;20303;-83
2023/02/05 12:14:06;;;;;;;7.28;3.30;;;5.40;1.00;;;;;;5059456;28;20230;-82
2023/02/05 12:16:58;;;;;;;9.60;3.72;;;5.60;1.00;;;;;;5062391;28;20313;-82
2023/02/05 12:19:46;;;;;;;10.93;4.85;;;6.00;1.00;;;;;;5046138;28;20261;-81
2023/02/05 12:22:27;;;;;;;7.68;3.13;;;6.20;1.00;;;;;;5033712;28;20316;-82
2023/02/05 12:25:19;;;;;;;5.63;2.65;;;6.30;1.00;;;;;;5036908;28;20238;-81
2023/02/05 12:28:06;;;;;;;6.47;2.70;;;6.50;1.00;;;;;;5033881;28;20943;-85
2023/02/05 12:31:11;;;;;;;;;;;;;;;;;;;;;
2023/02/05 12:34:17;;;;;;;8.57;3.30;;;7.00;1.00;;;;;;5036785;28;50321;-81
2023/02/05 12:37:08;;;;;;;6.63;2.75;;;7.40;1.00;;;;;;5034322;28;20748;-81
2023/02/05 12:39:46;;;;;;;8.38;3.28;;;7.30;1.00;;;;;;5035785;28;20218;-84
2023/02/05 12:42:38;;;;;;;8.90;3.75;;;7.20;1.00;;;;;;5029249;28;20240;-81
2023/02/05 12:45:35;;;;;;;9.60;3.10;;;7.20;1.00;;;;;;5013630;28;20233;-81
2023/02/05 12:48:40;;;;;;;;;;;;;;;;;;;;;
2023/02/05 12:51:27;;;;;;;10.65;5.35;;;6.50;1.00;;;;;;5039659;28;39588;-81
2023/02/05 12:54:30;;;;;;;8.23;3.38;;;6.60;1.00;;;;;;5033836;28;20247;-82
2023/02/05 12:57:08;;;;;;;9.20;3.50;;;6.40;1.00;;;;;;4982835;28;20246;-81
2023/02/05 12:59:50;;;;;;;7.15;2.53;;;6.40;1.00;;;;;;5038955;28;20230;-81
2023/02/05 13:02:29;;;;;;;8.63;2.92;;;6.40;1.00;;;;;;5036300;28;21109;-81
2023/02/05 13:05:27;;;;;;;7.00;3.13;;;6.60;1.00;;;;;;5138158;23;20290;-79
2023/02/05 13:08:06;;;;;;;9.05;2.70;;;6.60;1.00;;;;;;5073059;28;20240;-81
2023/02/05 13:10:43;;;;;;;7.32;2.63;;;6.40;1.00;;;;;;5075851;28;20751;-83
2023/02/05 13:13:17;;;;;;;8.65;3.42;;;6.40;1.00;;;;;;5081233;28;20319;-82
2023/02/05 13:15:48;;;;;;;8.18;3.28;;;6.40;1.00;;;;;;5076511;28;20241;-82
2023/02/05 13:18:29;;;;;;;7.25;2.40;;;6.40;1.00;;;;;;5077991;28;20233;-82
2023/02/05 13:29:23;;;;;;;7.88;2.60;;;5.90;1.00;;;;;;5074873;28;20264;-81
2023/02/05 13:31:56;;;;;;;7.25;2.70;;;5.50;1.00;;;;;;5074234;28;20240;-81
2023/02/05 13:34:29;;;;;;;7.00;2.60;;;5.40;1.00;;;;;;5081258;27;20241;-81
2023/02/05 13:37:26;;;;;;;8.32;2.72;;;5.20;1.00;;;;;;5080581;28;20724;-81
2023/02/05 13:40:28;;;;;;;6.40;2.53;;;5.10;1.00;;;;;;5068783;28;20245;-81
2023/02/05 13:43:38;;;;;;;7.82;2.50;;;5.30;1.00;;;;;;5076506;28;20243;-78
2023/02/05 13:46:39;;;;;;;5.95;2.22;;;5.10;1.00;;;;;;5075875;27;20225;-80
2023/02/05 13:49:48;;;;;;;8.02;3.20;;;4.90;1.00;;;;;;5073309;28;20237;-80
2023/02/05 13:52:47;;;;;;;7.40;2.40;;;4.90;1.00;;;;;;5079974;28;20220;-79
2023/02/05 13:55:37;;;;;;;6.43;2.13;;;4.90;1.00;;;;;;5054715;28;21137;-78
2023/02/05 13:58:28;;;;;;;7.47;2.85;;;4.80;1.00;;;;;;5079890;28;21044;-80
2023/02/05 14:01:00;;;;;;;7.25;2.40;;;4.60;1.00;;;;;;5076832;28;20345;-80
2023/02/05 14:03:34;;;;;;;6.38;2.15;;;4.50;1.00;;;;;;5076591;28;21030;-80
2023/02/05 14:06:22;;;;;;;7.40;2.00;;;4.30;1.00;;;;;;5081214;28;20324;-79
2023/02/05 14:08:56;;;;;;;5.93;2.17;;;4.10;1.00;;;;;;5084789;28;20244;-82
2023/02/05 14:11:25;;;;;;;8.02;3.00;;;3.80;1.00;;;;;;5078521;28;20224;-81
2023/02/05 14:14:30;;;;;;;9.50;2.47;;;3.70;1.00;;;;;;5077436;28;20279;-78
2023/02/05 14:16:58;;;;;;;6.70;2.00;;;3.60;1.00;;;;;;5085910;28;20247;-79
2023/02/05 14:19:56;;;;;;;8.13;2.50;;;3.40;1.00;;;;;;5080759;28;20228;-81
2023/02/05 14:22:41;;;;;;;6.70;2.35;;;3.40;1.00;;;;;;5079911;28;20372;-80
2023/02/05 14:25:41;;;;;;;7.38;2.55;;;3.40;1.00;;;;;;5078781;28;20286;-79
2023/02/05 14:28:52;;;;;;;7.68;2.50;;;3.40;1.00;;;;;;5078266;28;20322;-82
2023/02/05 14:31:47;;;;;;;7.53;2.80;;;3.30;1.00;;;;;;5079296;28;20264;-79
2023/02/05 14:34:50;;;;;;;7.95;2.17;;;3.30;1.00;;;;;;5079347;28;20735;-78
2023/02/05 14:37:30;;;;;;;8.98;3.92;;;3.10;1.00;;;;;;5075677;28;21130;-77
2023/02/05 14:39:59;;;;;;;14.93;3.90;;;3.10;1.00;;;;;;5073977;28;20243;-82
2023/02/05 14:42:30;;;;;;;11.52;3.92;;;3.10;1.00;;;;;;5077111;28;20308;-81
2023/02/05 14:45:03;;;;;;;11.32;4.07;;;3.10;1.00;;;;;;5071994;28;20241;-82
2023/02/05 14:47:38;;;;;;;9.35;5.28;;;3.10;1.00;;;;;;5077184;28;20267;-82
2023/02/05 14:50:22;;;;;;;7.45;3.40;;;3.00;1.00;;;;;;5074291;28;20319;-80
2023/02/05 14:52:52;;;;;;;8.55;2.80;;;2.90;1.00;;;;;;5079581;28;20287;-81
2023/02/05 14:55:27;;;;;;;7.43;2.60;;;2.80;1.00;;;;;;5080370;28;20272;-80
2023/02/05 14:57:57;;;;;;;6.30;2.40;;;2.60;1.00;;;;;;5074056;28;20247;-80
2023/02/05 15:00:29;;;;;;;6.82;2.28;;;2.60;1.00;;;;;;5076369;28;20233;-80
2023/02/05 15:03:29;;;;;;;7.85;2.10;;;2.60;1.00;;;;;;5080609;28;20686;-84
2023/02/05 15:06:02;;;;;;;6.25;2.08;;;2.50;1.00;;;;;;5075566;28;20237;-81
2023/02/05 15:08:43;;;;;;;7.68;2.90;;;2.40;1.00;;;;;;5079899;28;20309;-81
2023/02/05 15:11:19;;;;;;;7.25;2.80;;;2.40;1.00;;;;;;5079155;28;20232;-80
2023/02/05 15:14:16;;;;;;;7.60;3.33;;;2.40;1.00;;;;;;5082086;28;20274;-82
2023/02/05 15:16:45;;;;;;;7.72;2.65;;;2.40;1.00;;;;;;5053247;28;20945;-82
2023/02/05 15:19:15;;;;;;;8.23;2.88;;;2.30;1.00;;;;;;5074466;28;20931;-81
2023/02/05 15:21:49;;;;;;;8.27;2.92;;;2.20;1.00;;;;;;5073836;28;20424;-82
2023/02/05 15:24:19;;;;;;;7.10;2.97;;;2.10;1.00;;;;;;5081707;28;20241;-81
2023/02/05 15:26:53;;;;;;;6.43;2.38;;;2.10;1.00;;;;;;5076815;28;20279;-81
2023/02/05 15:29:25;;;;;;;7.88;2.75;;;2.10;1.00;;;;;;5071828;28;20248;-82
2023/02/05 15:31:55;;;;;;;8.65;3.30;;;2.10;1.00;;;;;;5081069;28;20247;-81
2023/02/05 15:34:33;;;;;;;6.35;2.35;;;2.10;1.00;;;;;;5078713;28;20278;-82
2023/02/05 15:37:05;;;;;;;7.18;2.42;;;2.10;1.00;;;;;;5080388;28;20236;-81
2023/02/05 15:39:37;;;;;;;6.82;2.65;;;2.00;1.00;;;;;;5079222;28;20232;-80
2023/02/05 15:42:10;;;;;;;9.70;3.17;;;2.00;1.00;;;;;;5082213;28;21120;-81
2023/02/05 15:44:39;;;;;;;9.30;3.30;;;1.90;1.00;;;;;;5079120;28;20225;-81
2023/02/05 15:47:14;;;;;;;7.45;3.15;;;1.90;1.00;;;;;;5076950;28;20786;-80
2023/02/05 15:49:47;;;;;;;19.08;7.70;;;1.80;1.00;;;;;;5079144;28;21155;-82
2023/02/05 15:52:23;;;;;;;7.28;3.10;;;1.70;1.00;;;;;;5078598;28;20248;-80
2023/02/05 15:54:51;;;;;;;13.43;3.88;;;1.70;1.00;;;;;;5078394;28;20243;-80
2023/02/05 15:57:23;;;;;;;7.07;3.30;;;1.60;1.00;;;;;;5068438;28;20731;-79
2023/02/05 15:59:51;;;;;;;7.60;3.17;;;1.60;1.00;;;;;;5068776;28;20308;-79
2023/02/05 16:02:22;;;;;;;7.53;2.60;;;1.50;1.00;;;;;;5068425;28;20244;-79
2023/02/05 16:04:56;;;;;;;7.30;3.70;;;1.50;1.00;;;;;;5076581;28;20244;-82
2023/02/05 16:07:25;;;;;;;10.40;3.30;;;1.40;1.00;;;;;;5075997;28;20242;-79
2023/02/05 16:09:54;;;;;;;8.30;2.55;;;1.30;1.00;;;;;;5076978;28;20236;-77
2023/02/05 16:12:25;;;;;;;8.93;3.05;;;1.30;1.00;;;;;;5071496;28;20232;-77
2023/02/05 16:15:01;;;;;;;7.15;2.88;;;1.30;1.00;;;;;;5069937;28;20240;-79
2023/02/05 16:17:34;;;;;;;10.70;3.67;;;1.30;1.00;;;;;;5073944;28;20236;-81
2023/02/05 16:20:16;;;;;;;8.50;3.03;;;1.30;1.00;;;;;;5063091;28;20371;-79
2023/02/05 16:22:46;;;;;;;9.60;3.75;;;1.20;1.00;;;;;;5070665;28;20236;-79
2023/02/05 16:25:31;;;;;;;8.85;3.80;;;1.10;1.00;;;;;;5076993;28;20322;-78
2023/02/05 16:28:02;;;;;;;7.93;3.38;;;1.00;1.00;;;;;;5072664;28;20358;-79
2023/02/05 16:30:41;;;;;;;8.75;3.88;;;0.90;1.00;;;;;;5061057;28;20263;-81
2023/02/05 16:33:18;;;;;;;9.52;4.32;;;0.90;1.00;;;;;;5042341;28;20368;-79
2023/02/05 16:35:47;;;;;;;8.25;3.60;;;0.80;1.00;;;;;;5070326;28;20244;-79
2023/02/05 16:38:16;;;;;;;9.00;3.78;;;0.70;1.00;;;;;;5072397;28;20240;-78
2023/02/05 16:40:46;;;;;;;10.88;4.38;;;0.60;1.00;;;;;;5070982;28;20755;-80
2023/02/05 16:43:31;;;;;;;8.80;4.05;;;0.60;1.00;;;;;;5080315;28;20239;-79
2023/02/05 16:46:35;;;;;;;8.95;4.45;;;0.50;1.00;;;;;;5078065;28;20232;-80
2023/02/05 16:49:24;;;;;;;14.93;5.20;;;0.50;1.00;;;;;;5075146;28;21050;-77
2023/02/05 16:51:55;;;;;;;10.10;4.05;;;0.40;1.00;;;;;;5075507;28;20267;-77
2023/02/05 16:54:28;;;;;;;10.50;4.25;;;0.30;1.00;;;;;;5081476;28;20744;-80
2023/02/05 16:57:17;;;;;;;8.18;3.55;;;0.20;1.00;;;;;;5089684;28;20221;-80
2023/02/05 17:00:02;;;;;;;11.98;4.20;;;0.20;1.00;;;;;;5084689;28;20241;-79
2023/02/05 17:02:38;;;;;;;9.98;4.75;;;0.20;1.00;;;;;;5084039;28;20708;-81
2023/02/05 17:05:28;;;;;;;10.07;4.30;;;0.20;1.00;;;;;;5083779;28;20296;-80
2023/02/05 17:08:03;;;;;;;11.05;4.68;;;0.10;1.00;;;;;;5084837;28;20241;-82
2023/02/05 17:10:50;;;;;;;11.15;4.80;;;0.10;1.00;;;;;;5087550;28;20236;-81
2023/02/05 17:13:29;;;;;;;9.65;4.75;;;0.10;1.00;;;;;;5085024;28;20232;-80
2023/02/05 17:16:41;;;;;;;8.73;4.60;;;0.10;1.00;;;;;;5083024;28;20225;-81
2023/02/05 17:19:29;;;;;;;11.73;6.50;;;0.20;1.00;;;;;;5059361;28;20209;-79
2023/02/05 17:22:18;;;;;;;13.57;7.20;;;0.20;1.00;;;;;;5080341;28;20317;-81
2023/02/05 17:24:57;;;;;;;14.20;7.80;;;0.10;1.00;;;;;;5081170;28;20235;-80
2023/02/05 17:27:36;;;;;;;13.55;8.50;;;0.00;1.00;;;;;;5073780;28;20728;-80
2023/02/05 17:33:09;;;;;;;14.32;9.43;;;-0.10;1.00;;;;;;5090993;28;20324;-79
2023/02/05 17:35:43;;;;;;;15.88;9.35;;;-0.10;1.00;;;;;;5424100;22;20246;-87
2023/02/05 17:38:11;;;;;;;16.13;8.60;;;-0.20;1.00;;;;;;5120535;22;20224;-87
2023/02/05 17:43:23;;;;;;;13.68;7.40;;;-0.20;1.00;;;;;;5060479;28;20466;-78
2023/02/05 17:45:55;;;;;;;14.77;7.97;;;-0.20;1.00;;;;;;5054679;28;20222;-77
2023/02/05 17:48:25;;;;;;;11.48;6.20;;;-0.20;1.00;;;;;;5062675;28;20253;-79
2023/02/05 17:50:57;;;;;;;11.40;6.82;;;-0.20;1.00;;;;;;5069466;28;20237;-79
2023/02/05 17:56:06;;;;;;;11.48;6.32;;;-0.20;1.00;;;;;;5065176;28;20240;-76
2023/02/05 17:58:34;;;;;;;12.65;6.55;;;-0.20;1.00;;;;;;5088129;28;20237;-78
2023/02/05 18:01:07;;;;;;;12.13;6.53;;;-0.30;1.00;;;;;;5070344;28;20248;-79
2023/02/05 18:03:36;;;;;;;18.15;8.05;;;-0.30;1.00;;;;;;5077098;28;20291;-80
2023/02/05 18:06:13;;;;;;;13.13;7.32;;;-0.30;1.00;;;;;;5074392;28;20237;-80
2023/02/05 18:11:34;;;;;;;13.88;7.10;;;-0.20;1.00;;;;;;5033509;28;20248;-78
2023/02/05 18:16:36;;;;;;;14.32;8.00;;;-0.40;1.00;;;;;;5347739;22;20230;-83
2023/02/05 18:32:06;;;;;;;15.00;8.73;;;-0.50;1.00;;;;;;3536104;22;20272;-85
2023/02/05 18:34:35;;;;;;;15.27;7.38;;;-0.50;1.00;;;;;;5248526;22;20244;-83
2023/02/05 18:37:05;;;;;;;10.95;6.85;;;-0.50;1.00;;;;;;5033108;28;20237;-80
2023/02/05 18:39:34;;;;;;;16.80;7.72;;;-0.40;1.00;;;;;;5059205;28;20234;-81
2023/02/05 18:42:15;;;;;;;14.63;8.27;;;-0.40;1.00;;;;;;5040892;28;20221;-80
2023/02/05 18:44:52;;;;;;;12.15;7.00;;;-0.40;1.00;;;;;;5049220;28;20237;-77
2023/02/05 18:47:21;;;;;;;22.40;13.77;;;-0.40;1.00;;;;;;5036935;28;20233;-77
2023/02/05 18:49:51;;;;;;;14.88;8.13;;;-0.40;1.00;;;;;;5035530;28;20247;-77
2023/02/05 18:52:25;;;;;;;17.98;9.77;;;-0.50;1.00;;;;;;5027826;28;20218;-79
2023/02/05 18:55:04;;;;;;;14.68;8.48;;;-0.50;1.00;;;;;;5035999;28;20250;-81
2023/02/05 18:57:37;;;;;;;14.43;7.65;;;-0.50;1.00;;;;;;5041863;28;20242;-77
2023/02/05 19:00:06;;;;;;;13.73;8.50;;;-0.50;1.00;;;;;;5030538;28;20237;-77
2023/02/05 19:02:35;;;;;;;14.38;8.30;;;-0.50;1.00;;;;;;5042001;28;20234;-82
2023/02/05 19:05:07;;;;;;;17.13;9.75;;;-0.50;1.00;;;;;;5024393;28;20234;-81
2023/02/05 19:07:34;;;;;;;14.82;10.15;;;-0.50;1.00;;;;;;5026063;28;20701;-83
2023/02/05 19:10:04;;;;;;;14.30;9.20;;;-0.60;1.00;;;;;;5028132;28;21157;-82
2023/02/05 19:12:43;;;;;;;16.52;9.60;;;-0.60;1.00;;;;;;5042504;28;20242;-82
2023/02/05 19:15:25;;;;;;;17.85;8.82;;;-0.70;1.00;;;;;;5033499;28;20240;-80
2023/02/05 19:17:56;;;;;;;14.27;7.95;;;-0.60;1.00;;;;;;5032691;28;20268;-82
2023/02/05 19:24:10;;;;;;;;;;;;;;;;;;;;;
2023/02/05 19:26:46;;;;;;;17.98;9.73;;;-0.60;1.00;;;;;;5028030;28;50684;-81
2023/02/05 19:29:23;;;;;;;15.48;9.98;;;-0.70;1.00;;;;;;5058410;28;20268;-80